sensor_id;sensor_type;location;lat;lon;timestamp;pressure;altitude;pressure_sealevel;temperature;humidity
79372;BME280;68914;51.262;6.802;2023-06-24T00:00:32;102145.09;;;21.27;63.21
79372;BME280;68914;51.262;6.802;2023-06-24T00:01:34;102141.84;;;21.25;63.33
79372;BME280;68914;51.262;6.802;2023-06-24T00:02:35;102141.84;;;21.13;63.83
79372;BME280;68914;51.262;6.802;2023-06-24T00:03:39;102136.84;;;21.17;63.88
79372;BME280;68914;51.262;6.802;2023-06-24T00:04:39;102139.41;;;21.11;64.22
79372;BME280;68914;51.262;6.802;2023-06-24T00:05:40;102147.81;;;21.15;63.89
79372;BME280;68914;51.262;6.802;2023-06-24T00:06:41;102148.03;;;21.13;63.91
79372;BME280;68914;51.262;6.802;2023-06-24T00:07:41;102146.06;;;21.09;64.02
79372;BME280;68914;51.262;6.802;2023-06-24T00:08:46;102146.75;;;21.04;64.33
79372;BME280;68914;51.262;6.802;2023-06-24T00:09:47;102148.97;;;21.07;64.40
79372;BME280;68914;51.262;6.802;2023-06-24T00:10:48;102146.16;;;21.02;64.50
79372;BME280;68914;51.262;6.802;2023-06-24T00:11:48;102150.50;;;21.03;64.34
79372;BME280;68914;51.262;6.802;2023-06-24T00:12:49;102151.88;;;21.06;64.20
79372;BME280;68914;51.262;6.802;2023-06-24T00:13:50;102151.66;;;21.07;64.05
79372;BME280;68914;51.262;6.802;2023-06-24T00:14:50;102151.06;;;21.05;64.14
79372;BME280;68914;51.262;6.802;2023-06-24T00:15:51;102148.66;;;20.92;64.86
79372;BME280;68914;51.262;6.802;2023-06-24T00:16:55;102153.75;;;20.94;64.79
79372;BME280;68914;51.262;6.802;2023-06-24T00:17:56;102144.91;;;21.05;64.30
79372;BME280;68914;51.262;6.802;2023-06-24T00:19:05;102151.06;;;21.05;64.13
79372;BME280;68914;51.262;6.802;2023-06-24T00:20:08;102152.84;;;20.88;64.80
79372;BME280;68914;51.262;6.802;2023-06-24T00:21:11;102147.69;;;20.98;64.87
79372;BME280;68914;51.262;6.802;2023-06-24T00:22:11;102147.56;;;21.05;64.53
79372;BME280;68914;51.262;6.802;2023-06-24T00:23:14;102153.75;;;21.05;64.22
79372;BME280;68914;51.262;6.802;2023-06-24T00:24:18;102150.50;;;21.03;64.46
79372;BME280;68914;51.262;6.802;2023-06-24T00:25:19;102150.00;;;21.06;64.32
79372;BME280;68914;51.262;6.802;2023-06-24T00:26:20;102144.09;;;21.04;64.36
79372;BME280;68914;51.262;6.802;2023-06-24T00:27:21;102147.22;;;21.01;64.38
79372;BME280;68914;51.262;6.802;2023-06-24T00:28:22;102148.41;;;20.94;64.68
79372;BME280;68914;51.262;6.802;2023-06-24T00:29:23;102142.47;;;20.92;65.10
79372;BME280;68914;51.262;6.802;2023-06-24T00:30:25;102137.22;;;20.85;65.28
79372;BME280;68914;51.262;6.802;2023-06-24T00:31:26;102143.53;;;20.67;65.78
79372;BME280;68914;51.262;6.802;2023-06-24T00:32:27;102136.06;;;20.69;65.76
79372;BME280;68914;51.262;6.802;2023-06-24T00:33:27;102138.72;;;20.69;65.62
79372;BME280;68914;51.262;6.802;2023-06-24T00:34:28;102138.84;;;20.62;66.09
79372;BME280;68914;51.262;6.802;2023-06-24T00:35:29;102141.66;;;20.68;65.77
79372;BME280;68914;51.262;6.802;2023-06-24T00:36:30;102140.34;;;20.70;65.73
79372;BME280;68914;51.262;6.802;2023-06-24T00:37:32;102141.78;;;20.84;65.19
79372;BME280;68914;51.262;6.802;2023-06-24T00:38:33;102131.84;;;20.73;65.87
79372;BME280;68914;51.262;6.802;2023-06-24T00:39:34;102146.31;;;20.84;65.36
79372;BME280;68914;51.262;6.802;2023-06-24T00:40:35;102141.16;;;20.94;64.93
79372;BME280;68914;51.262;6.802;2023-06-24T00:41:35;102141.50;;;20.98;64.48
79372;BME280;68914;51.262;6.802;2023-06-24T00:42:37;102141.41;;;20.93;64.99
79372;BME280;68914;51.262;6.802;2023-06-24T00:43:38;102142.47;;;21.03;64.69
79372;BME280;68914;51.262;6.802;2023-06-24T00:44:39;102145.72;;;21.05;64.34
79372;BME280;68914;51.262;6.802;2023-06-24T00:45:40;102142.47;;;21.03;64.31
79372;BME280;68914;51.262;6.802;2023-06-24T00:46:41;102144.09;;;21.04;64.32
79372;BME280;68914;51.262;6.802;2023-06-24T00:47:44;102143.97;;;20.99;64.50
79372;BME280;68914;51.262;6.802;2023-06-24T00:48:45;102150.63;;;20.97;64.45
79372;BME280;68914;51.262;6.802;2023-06-24T00:49:46;102136.28;;;20.91;64.87
79372;BME280;68914;51.262;6.802;2023-06-24T00:50:47;102145.00;;;20.86;65.03
79372;BME280;68914;51.262;6.802;2023-06-24T00:51:52;102148.75;;;20.85;65.06
79372;BME280;68914;51.262;6.802;2023-06-24T00:52:53;102142.34;;;20.86;64.93
79372;BME280;68914;51.262;6.802;2023-06-24T00:53:53;102144.56;;;20.78;65.00
79372;BME280;68914;51.262;6.802;2023-06-24T00:54:54;102145.72;;;20.82;65.12
79372;BME280;68914;51.262;6.802;2023-06-24T00:55:57;102143.03;;;20.82;65.00
79372;BME280;68914;51.262;6.802;2023-06-24T00:57:03;102145.72;;;20.82;64.90
79372;BME280;68914;51.262;6.802;2023-06-24T00:58:04;102139.69;;;20.75;65.07
79372;BME280;68914;51.262;6.802;2023-06-24T00:59:06;102143.28;;;20.69;65.30
79372;BME280;68914;51.262;6.802;2023-06-24T01:00:07;102144.78;;;20.53;66.31
79372;BME280;68914;51.262;6.802;2023-06-24T01:01:16;102143.75;;;20.66;65.80
79372;BME280;68914;51.262;6.802;2023-06-24T01:02:17;102148.75;;;20.62;65.76
79372;BME280;68914;51.262;6.802;2023-06-24T01:03:18;102143.53;;;20.67;65.25
79372;BME280;68914;51.262;6.802;2023-06-24T01:04:19;102140.34;;;20.70;65.10
79372;BME280;68914;51.262;6.802;2023-06-24T01:05:20;102141.66;;;20.68;65.28
79372;BME280;68914;51.262;6.802;2023-06-24T01:06:24;102140.94;;;20.60;65.44
79372;BME280;68914;51.262;6.802;2023-06-24T01:07:31;102137.00;;;20.63;65.36
79372;BME280;68914;51.262;6.802;2023-06-24T01:08:32;102135.13;;;20.63;64.97
79372;BME280;68914;51.262;6.802;2023-06-24T01:09:33;102147.94;;;20.61;64.93
79372;BME280;68914;51.262;6.802;2023-06-24T01:10:35;102145.13;;;20.56;64.92
79372;BME280;68914;51.262;6.802;2023-06-24T01:11:35;102138.00;;;20.50;64.89
79372;BME280;68914;51.262;6.802;2023-06-24T01:12:38;102135.44;;;20.44;64.96
79372;BME280;68914;51.262;6.802;2023-06-24T01:13:39;102132.75;;;20.44;65.05
79372;BME280;68914;51.262;6.802;2023-06-24T01:14:40;102133.22;;;20.41;65.46
79372;BME280;68914;51.262;6.802;2023-06-24T01:15:42;102132.16;;;20.42;65.25
79372;BME280;68914;51.262;6.802;2023-06-24T01:16:59;102131.69;;;20.45;64.95
79372;BME280;68914;51.262;6.802;2023-06-24T01:30:52;102135.94;;;20.52;64.90
79372;BME280;68914;51.262;6.802;2023-06-24T01:33:41;102131.44;;;20.46;65.19
79372;BME280;68914;51.262;6.802;2023-06-24T01:34:55;102132.72;;;20.32;66.32
79372;BME280;68914;51.262;6.802;2023-06-24T01:35:59;102138.53;;;20.29;66.25
79372;BME280;68914;51.262;6.802;2023-06-24T01:38:15;102131.91;;;20.31;66.22
79372;BME280;68914;51.262;6.802;2023-06-24T01:39:20;102135.88;;;20.29;66.28
79372;BME280;68914;51.262;6.802;2023-06-24T01:41:25;102136.06;;;20.16;67.00
79372;BME280;68914;51.262;6.802;2023-06-24T01:42:28;102133.19;;;20.29;66.17
79372;BME280;68914;51.262;6.802;2023-06-24T01:43:32;102136.09;;;20.27;66.26
79372;BME280;68914;51.262;6.802;2023-06-24T01:44:34;102134.09;;;20.23;66.42
79372;BME280;68914;51.262;6.802;2023-06-24T01:45:46;102136.31;;;20.26;66.33
79372;BME280;68914;51.262;6.802;2023-06-24T01:46:51;102125.56;;;20.14;67.03
79372;BME280;68914;51.262;6.802;2023-06-24T01:48:02;102131.53;;;20.16;66.79
79372;BME280;68914;51.262;6.802;2023-06-24T01:49:04;102130.88;;;20.32;66.14
79372;BME280;68914;51.262;6.802;2023-06-24T01:50:10;102128.72;;;20.23;66.62
79372;BME280;68914;51.262;6.802;2023-06-24T01:51:17;102128.28;;;20.26;66.57
79372;BME280;68914;51.262;6.802;2023-06-24T01:52:22;102124.69;;;20.32;66.34
79372;BME280;68914;51.262;6.802;2023-06-24T01:53:24;102124.56;;;20.38;65.95
79372;BME280;68914;51.262;6.802;2023-06-24T01:54:28;102118.53;;;20.43;65.70
79372;BME280;68914;51.262;6.802;2023-06-24T01:55:31;102112.94;;;20.33;65.88
79372;BME280;68914;51.262;6.802;2023-06-24T01:56:33;102121.31;;;20.36;66.16
79372;BME280;68914;51.262;6.802;2023-06-24T01:57:37;102111.31;;;20.32;65.82
79372;BME280;68914;51.262;6.802;2023-06-24T01:58:41;102115.25;;;20.41;65.04
79372;BME280;68914;51.262;6.802;2023-06-24T01:59:45;102104.19;;;20.26;64.00
79372;BME280;68914;51.262;6.802;2023-06-24T02:00:47;102109.78;;;20.36;64.38
79372;BME280;68914;51.262;6.802;2023-06-24T02:01:50;102112.31;;;20.31;63.60
79372;BME280;68914;51.262;6.802;2023-06-24T02:02:53;102112.47;;;20.36;63.38
79372;BME280;68914;51.262;6.802;2023-06-24T02:03:55;102105.25;;;20.36;63.51
79372;BME280;68914;51.262;6.802;2023-06-24T02:04:57;102109.88;;;20.29;63.37
79372;BME280;68914;51.262;6.802;2023-06-24T02:05:59;102111.66;;;20.47;62.97
79372;BME280;68914;51.262;6.802;2023-06-24T02:07:02;102112.22;;;20.26;63.42
79372;BME280;68914;51.262;6.802;2023-06-24T02:08:04;102106.47;;;20.52;62.05
79372;BME280;68914;51.262;6.802;2023-06-24T02:09:06;102104.66;;;20.46;63.06
79372;BME280;68914;51.262;6.802;2023-06-24T02:10:08;102111.34;;;20.55;63.13
79372;BME280;68914;51.262;6.802;2023-06-24T02:11:10;102117.41;;;20.62;63.16
79372;BME280;68914;51.262;6.802;2023-06-24T02:12:13;102110.88;;;20.58;62.02
79372;BME280;68914;51.262;6.802;2023-06-24T02:13:16;102115.56;;;20.51;62.09
79372;BME280;68914;51.262;6.802;2023-06-24T02:14:17;102112.19;;;20.68;61.73
79372;BME280;68914;51.262;6.802;2023-06-24T02:15:20;102110.53;;;20.67;62.98
79372;BME280;68914;51.262;6.802;2023-06-24T02:16:22;102115.88;;;20.78;61.49
79372;BME280;68914;51.262;6.802;2023-06-24T02:17:26;102111.72;;;20.59;61.59
79372;BME280;68914;51.262;6.802;2023-06-24T02:18:29;102113.44;;;20.65;61.91
79372;BME280;68914;51.262;6.802;2023-06-24T02:19:31;102108.44;;;20.57;61.22
79372;BME280;68914;51.262;6.802;2023-06-24T02:20:34;102120.22;;;20.68;60.97
79372;BME280;68914;51.262;6.802;2023-06-24T02:21:35;102106.41;;;20.41;60.99
79372;BME280;68914;51.262;6.802;2023-06-24T02:22:38;102108.09;;;20.53;61.25
79372;BME280;68914;51.262;6.802;2023-06-24T02:23:40;102111.81;;;20.52;61.02
79372;BME280;68914;51.262;6.802;2023-06-24T02:24:42;102107.47;;;20.39;61.28
79372;BME280;68914;51.262;6.802;2023-06-24T02:25:43;102107.94;;;20.48;60.63
79372;BME280;68914;51.262;6.802;2023-06-24T02:26:45;102115.16;;;20.48;61.01
79372;BME280;68914;51.262;6.802;2023-06-24T02:27:47;102114.09;;;20.37;61.43
79372;BME280;68914;51.262;6.802;2023-06-24T02:28:49;102110.63;;;20.48;60.65
79372;BME280;68914;51.262;6.802;2023-06-24T02:29:51;102113.19;;;20.55;60.63
79372;BME280;68914;51.262;6.802;2023-06-24T02:30:54;102109.34;;;20.51;60.83
79372;BME280;68914;51.262;6.802;2023-06-24T02:31:54;102117.66;;;20.73;60.24
79372;BME280;68914;51.262;6.802;2023-06-24T02:32:55;102107.63;;;20.56;60.66
79372;BME280;68914;51.262;6.802;2023-06-24T02:33:57;102118.25;;;20.75;60.75
79372;BME280;68914;51.262;6.802;2023-06-24T02:34:58;102113.69;;;20.75;61.80
79372;BME280;68914;51.262;6.802;2023-06-24T02:36:01;102114.03;;;20.79;60.76
79372;BME280;68914;51.262;6.802;2023-06-24T02:37:03;102109.34;;;20.51;60.56
79372;BME280;68914;51.262;6.802;2023-06-24T02:38:04;102122.88;;;20.56;60.50
79372;BME280;68914;51.262;6.802;2023-06-24T02:39:04;102108.69;;;20.55;60.45
79372;BME280;68914;51.262;6.802;2023-06-24T02:40:07;102105.47;;;20.35;60.76
79372;BME280;68914;51.262;6.802;2023-06-24T02:41:08;102110.38;;;20.38;61.03
79372;BME280;68914;51.262;6.802;2023-06-24T02:42:10;102102.97;;;20.52;60.62
79372;BME280;68914;51.262;6.802;2023-06-24T02:43:10;102109.66;;;20.43;60.48
79372;BME280;68914;51.262;6.802;2023-06-24T02:44:11;102105.47;;;20.47;60.51
79372;BME280;68914;51.262;6.802;2023-06-24T02:45:12;102101.97;;;20.46;60.62
79372;BME280;68914;51.262;6.802;2023-06-24T02:46:15;102105.16;;;20.55;60.15
79372;BME280;68914;51.262;6.802;2023-06-24T02:47:16;102107.84;;;20.67;59.95
79372;BME280;68914;51.262;6.802;2023-06-24T02:48:18;102095.75;;;20.52;60.05
79372;BME280;68914;51.262;6.802;2023-06-24T02:49:20;102106.81;;;20.56;60.32
79372;BME280;68914;51.262;6.802;2023-06-24T02:50:22;102105.72;;;20.45;60.27
79372;BME280;68914;51.262;6.802;2023-06-24T02:51:25;102102.25;;;20.56;60.16
79372;BME280;68914;51.262;6.802;2023-06-24T02:52:27;102106.91;;;20.49;60.16
79372;BME280;68914;51.262;6.802;2023-06-24T02:53:31;102112.28;;;20.61;59.98
79372;BME280;68914;51.262;6.802;2023-06-24T02:54:33;102109.50;;;20.56;59.98
79372;BME280;68914;51.262;6.802;2023-06-24T02:56:00;102111.53;;;20.42;60.55
79372;BME280;68914;51.262;6.802;2023-06-24T02:57:05;102120.31;;;20.49;60.13
79372;BME280;68914;51.262;6.802;2023-06-24T02:58:27;102111.13;;;20.57;60.05
79372;BME280;68914;51.262;6.802;2023-06-24T02:59:41;102113.09;;;20.61;60.06
79372;BME280;68914;51.262;6.802;2023-06-24T03:00:45;102118.34;;;20.68;59.99
79372;BME280;68914;51.262;6.802;2023-06-24T03:01:46;102116.22;;;20.58;59.76
79372;BME280;68914;51.262;6.802;2023-06-24T03:02:47;102118.81;;;20.53;59.98
79372;BME280;68914;51.262;6.802;2023-06-24T03:03:49;102111.53;;;20.42;60.24
79372;BME280;68914;51.262;6.802;2023-06-24T03:04:51;102115.16;;;20.36;60.67
79372;BME280;68914;51.262;6.802;2023-06-24T03:05:54;102113.97;;;20.32;60.69
79372;BME280;68914;51.262;6.802;2023-06-24T03:06:56;102113.59;;;20.17;61.23
79372;BME280;68914;51.262;6.802;2023-06-24T03:07:58;102117.94;;;20.41;60.55
79372;BME280;68914;51.262;6.802;2023-06-24T03:08:59;102120.41;;;20.54;59.92
79372;BME280;68914;51.262;6.802;2023-06-24T03:10:01;102129.06;;;20.56;59.72
79372;BME280;68914;51.262;6.802;2023-06-24T03:11:04;102118.06;;;20.46;60.36
79372;BME280;68914;51.262;6.802;2023-06-24T03:12:06;102128.91;;;20.39;60.45
79372;BME280;68914;51.262;6.802;2023-06-24T03:13:14;102125.25;;;20.22;60.58
79372;BME280;68914;51.262;6.802;2023-06-24T03:14:19;102127.72;;;20.35;60.76
79372;BME280;68914;51.262;6.802;2023-06-24T03:15:20;102130.75;;;20.39;60.36
79372;BME280;68914;51.262;6.802;2023-06-24T03:16:21;102130.88;;;20.32;60.55
79372;BME280;68914;51.262;6.802;2023-06-24T03:17:36;102126.78;;;20.30;60.86
79372;BME280;68914;51.262;6.802;2023-06-24T03:18:41;102128.63;;;20.29;60.97
79372;BME280;68914;51.262;6.802;2023-06-24T03:19:42;102132.72;;;20.32;60.65
79372;BME280;68914;51.262;6.802;2023-06-24T03:20:43;102121.53;;;20.35;60.70
79372;BME280;68914;51.262;6.802;2023-06-24T03:21:49;102125.25;;;20.34;60.87
79372;BME280;68914;51.262;6.802;2023-06-24T03:22:50;102127.16;;;20.45;60.18
79372;BME280;68914;51.262;6.802;2023-06-24T03:23:54;102117.03;;;20.47;60.08
79372;BME280;68914;51.262;6.802;2023-06-24T03:24:55;102125.97;;;20.41;60.33
79372;BME280;68914;51.262;6.802;2023-06-24T03:25:57;102123.34;;;20.53;60.18
79372;BME280;68914;51.262;6.802;2023-06-24T03:26:58;102120.66;;;20.53;59.88
79372;BME280;68914;51.262;6.802;2023-06-24T03:28:05;102120.06;;;20.51;59.73
79372;BME280;68914;51.262;6.802;2023-06-24T03:29:11;102126.94;;;20.58;59.91
79372;BME280;68914;51.262;6.802;2023-06-24T03:30:16;102126.50;;;20.61;59.59
79372;BME280;68914;51.262;6.802;2023-06-24T03:31:18;102128.72;;;20.53;60.21
79372;BME280;68914;51.262;6.802;2023-06-24T03:32:24;102124.06;;;20.72;59.50
79372;BME280;68914;51.262;6.802;2023-06-24T03:33:25;102128.09;;;20.51;60.09
79372;BME280;68914;51.262;6.802;2023-06-24T03:34:27;102117.69;;;20.43;60.25
79372;BME280;68914;51.262;6.802;2023-06-24T03:35:28;102124.16;;;20.53;59.84
79372;BME280;68914;51.262;6.802;2023-06-24T03:36:33;102127.94;;;20.34;60.29
79372;BME280;68914;51.262;6.802;2023-06-24T03:37:35;102124.06;;;20.60;60.13
79372;BME280;68914;51.262;6.802;2023-06-24T03:38:36;102127.22;;;20.27;60.57
79372;BME280;68914;51.262;6.802;2023-06-24T03:39:38;102126.06;;;20.34;60.51
79372;BME280;68914;51.262;6.802;2023-06-24T03:40:40;102127.56;;;20.19;61.04
79372;BME280;68914;51.262;6.802;2023-06-24T03:41:40;102131.56;;;20.28;60.85
79372;BME280;68914;51.262;6.802;2023-06-24T03:42:41;102131.91;;;20.20;60.84
79372;BME280;68914;51.262;6.802;2023-06-24T03:43:42;102135.00;;;20.05;61.48
79372;BME280;68914;51.262;6.802;2023-06-24T03:44:44;102134.31;;;20.09;61.56
79372;BME280;68914;51.262;6.802;2023-06-24T03:45:44;102134.13;;;20.34;60.92
79372;BME280;68914;51.262;6.802;2023-06-24T03:46:45;102137.00;;;20.21;61.08
79372;BME280;68914;51.262;6.802;2023-06-24T03:47:46;102136.09;;;20.27;61.00
79372;BME280;68914;51.262;6.802;2023-06-24T03:48:47;102143.16;;;20.52;60.44
79372;BME280;68914;51.262;6.802;2023-06-24T03:49:48;102137.41;;;20.48;60.26
79372;BME280;68914;51.262;6.802;2023-06-24T03:50:49;102143.31;;;20.38;60.90
79372;BME280;68914;51.262;6.802;2023-06-24T03:51:49;102141.47;;;20.27;60.99
79372;BME280;68914;51.262;6.802;2023-06-24T03:52:50;102140.44;;;20.40;60.70
79372;BME280;68914;51.262;6.802;2023-06-24T03:53:51;102150.69;;;20.43;60.76
79372;BME280;68914;51.262;6.802;2023-06-24T03:54:52;102146.75;;;20.57;60.30
79372;BME280;68914;51.262;6.802;2023-06-24T03:55:53;102153.63;;;20.53;60.19
79372;BME280;68914;51.262;6.802;2023-06-24T03:56:54;102158.03;;;20.48;60.55
79372;BME280;68914;51.262;6.802;2023-06-24T03:57:54;102151.94;;;20.29;61.29
79372;BME280;68914;51.262;6.802;2023-06-24T03:58:55;102156.47;;;20.28;61.26
79372;BME280;68914;51.262;6.802;2023-06-24T03:59:56;102156.38;;;20.47;61.00
79372;BME280;68914;51.262;6.802;2023-06-24T04:00:59;102156.50;;;20.40;60.87
79372;BME280;68914;51.262;6.802;2023-06-24T04:02:00;102155.41;;;20.59;60.46
79372;BME280;68914;51.262;6.802;2023-06-24T04:03:01;102159.53;;;20.32;61.46
79372;BME280;68914;51.262;6.802;2023-06-24T04:04:02;102165.41;;;20.52;60.68
79372;BME280;68914;51.262;6.802;2023-06-24T04:05:06;102162.38;;;20.60;60.60
79372;BME280;68914;51.262;6.802;2023-06-24T04:06:07;102156.34;;;20.77;60.13
79372;BME280;68914;51.262;6.802;2023-06-24T04:07:08;102160.53;;;20.61;60.71
79372;BME280;68914;51.262;6.802;2023-06-24T04:08:11;102159.25;;;20.63;60.62
79372;BME280;68914;51.262;6.802;2023-06-24T04:09:12;102155.97;;;20.85;59.67
79372;BME280;68914;51.262;6.802;2023-06-24T04:10:13;102170.53;;;20.54;60.50
79372;BME280;68914;51.262;6.802;2023-06-24T04:11:14;102159.38;;;20.69;60.28
79372;BME280;68914;51.262;6.802;2023-06-24T04:12:14;102151.97;;;20.41;60.80
79372;BME280;68914;51.262;6.802;2023-06-24T04:13:15;102156.94;;;20.67;60.35
79372;BME280;68914;51.262;6.802;2023-06-24T04:14:16;102164.09;;;20.43;61.15
79372;BME280;68914;51.262;6.802;2023-06-24T04:15:17;102160.53;;;20.61;60.86
79372;BME280;68914;51.262;6.802;2023-06-24T04:16:18;102166.13;;;20.59;60.96
79372;BME280;68914;51.262;6.802;2023-06-24T04:17:18;102168.22;;;20.81;60.37
79372;BME280;68914;51.262;6.802;2023-06-24T04:18:19;102172.88;;;20.97;59.96
79372;BME280;68914;51.262;6.802;2023-06-24T04:19:20;102173.94;;;21.08;59.66
79372;BME280;68914;51.262;6.802;2023-06-24T04:20:21;102174.75;;;20.73;60.45
79372;BME280;68914;51.262;6.802;2023-06-24T04:21:22;102171.97;;;20.92;59.63
79372;BME280;68914;51.262;6.802;2023-06-24T04:22:25;102173.81;;;20.68;60.75
79372;BME280;68914;51.262;6.802;2023-06-24T04:23:30;102172.16;;;21.02;60.15
79372;BME280;68914;51.262;6.802;2023-06-24T04:24:31;102169.13;;;21.22;59.57
79372;BME280;68914;51.262;6.802;2023-06-24T04:25:32;102166.59;;;21.03;59.94
79372;BME280;68914;51.262;6.802;2023-06-24T04:26:33;102166.81;;;21.13;59.46
79372;BME280;68914;51.262;6.802;2023-06-24T04:27:34;102166.25;;;21.00;60.08
79372;BME280;68914;51.262;6.802;2023-06-24T04:28:35;102170.66;;;21.06;59.79
79372;BME280;68914;51.262;6.802;2023-06-24T04:29:36;102170.19;;;21.21;59.63
79372;BME280;68914;51.262;6.802;2023-06-24T04:30:37;102165.75;;;21.38;58.92
79372;BME280;68914;51.262;6.802;2023-06-24T04:31:42;102168.44;;;21.26;59.35
79372;BME280;68914;51.262;6.802;2023-06-24T04:32:43;102169.00;;;21.40;58.87
79372;BME280;68914;51.262;6.802;2023-06-24T04:33:44;102164.19;;;22.11;57.00
79372;BME280;68914;51.262;6.802;2023-06-24T04:34:45;102165.31;;;22.44;55.89
79372;BME280;68914;51.262;6.802;2023-06-24T04:35:46;102166.03;;;22.90;54.48
79372;BME280;68914;51.262;6.802;2023-06-24T04:36:47;102166.78;;;22.68;54.95
79372;BME280;68914;51.262;6.802;2023-06-24T04:37:48;102168.06;;;22.82;54.10
79372;BME280;68914;51.262;6.802;2023-06-24T04:38:51;102165.47;;;23.26;53.22
79372;BME280;68914;51.262;6.802;2023-06-24T04:39:52;102166.47;;;23.86;51.88
79372;BME280;68914;51.262;6.802;2023-06-24T04:40:53;102165.78;;;23.96;51.17
79372;BME280;68914;51.262;6.802;2023-06-24T04:41:53;102165.47;;;23.92;51.11
79372;BME280;68914;51.262;6.802;2023-06-24T04:42:54;102173.72;;;23.64;51.99
79372;BME280;68914;51.262;6.802;2023-06-24T04:43:54;102168.25;;;22.76;53.86
79372;BME280;68914;51.262;6.802;2023-06-24T04:44:55;102161.03;;;23.15;53.31
79372;BME280;68914;51.262;6.802;2023-06-24T04:45:56;102169.69;;;23.00;53.85
79372;BME280;68914;51.262;6.802;2023-06-24T04:46:57;102168.53;;;23.79;51.69
79372;BME280;68914;51.262;6.802;2023-06-24T04:47:57;102162.84;;;23.10;52.66
79372;BME280;68914;51.262;6.802;2023-06-24T04:48:58;102166.03;;;23.50;52.54
79372;BME280;68914;51.262;6.802;2023-06-24T04:49:59;102165.06;;;22.96;53.87
79372;BME280;68914;51.262;6.802;2023-06-24T04:50:59;102161.47;;;22.90;54.16
79372;BME280;68914;51.262;6.802;2023-06-24T04:52:01;102170.81;;;23.21;53.24
79372;BME280;68914;51.262;6.802;2023-06-24T04:53:01;102170.03;;;22.37;55.72
79372;BME280;68914;51.262;6.802;2023-06-24T04:54:02;102170.34;;;22.23;56.24
79372;BME280;68914;51.262;6.802;2023-06-24T04:55:04;102173.25;;;21.65;57.73
79372;BME280;68914;51.262;6.802;2023-06-24T04:56:05;102169.91;;;21.57;58.38
79372;BME280;68914;51.262;6.802;2023-06-24T04:57:09;102163.41;;;22.10;57.01
79372;BME280;68914;51.262;6.802;2023-06-24T04:58:10;102165.88;;;21.72;57.95
79372;BME280;68914;51.262;6.802;2023-06-24T04:59:10;102170.28;;;21.90;57.88
79372;BME280;68914;51.262;6.802;2023-06-24T05:00:11;102168.41;;;21.90;57.61
79372;BME280;68914;51.262;6.802;2023-06-24T05:01:12;102161.38;;;21.60;58.60
79372;BME280;68914;51.262;6.802;2023-06-24T05:02:13;102168.78;;;21.82;57.92
79372;BME280;68914;51.262;6.802;2023-06-24T05:03:13;102164.16;;;21.66;58.60
79372;BME280;68914;51.262;6.802;2023-06-24T05:04:14;102167.13;;;21.29;59.64
79372;BME280;68914;51.262;6.802;2023-06-24T05:05:15;102166.56;;;21.79;58.16
79372;BME280;68914;51.262;6.802;2023-06-24T05:06:15;102157.88;;;21.60;58.63
79372;BME280;68914;51.262;6.802;2023-06-24T05:07:16;102160.50;;;21.20;59.93
79372;BME280;68914;51.262;6.802;2023-06-24T05:08:17;102163.91;;;21.03;60.65
79372;BME280;68914;51.262;6.802;2023-06-24T05:09:17;102169.59;;;21.42;59.22
79372;BME280;68914;51.262;6.802;2023-06-24T05:10:18;102159.53;;;21.49;59.29
79372;BME280;68914;51.262;6.802;2023-06-24T05:11:19;102169.44;;;21.89;58.06
79372;BME280;68914;51.262;6.802;2023-06-24T05:12:19;102171.59;;;21.35;59.72
79372;BME280;68914;51.262;6.802;2023-06-24T05:13:20;102169.00;;;21.80;58.59
79372;BME280;68914;51.262;6.802;2023-06-24T05:14:21;102167.72;;;21.83;58.26
79372;BME280;68914;51.262;6.802;2023-06-24T05:15:21;102167.25;;;22.15;57.50
79372;BME280;68914;51.262;6.802;2023-06-24T05:16:25;102157.66;;;22.19;57.32
79372;BME280;68914;51.262;6.802;2023-06-24T05:17:26;102167.41;;;21.96;57.90
79372;BME280;68914;51.262;6.802;2023-06-24T05:18:26;102163.19;;;22.29;56.99
79372;BME280;68914;51.262;6.802;2023-06-24T05:19:27;102160.59;;;22.68;56.38
79372;BME280;68914;51.262;6.802;2023-06-24T05:20:30;102166.78;;;22.51;55.99
79372;BME280;68914;51.262;6.802;2023-06-24T05:21:31;102160.84;;;22.66;56.08
79372;BME280;68914;51.262;6.802;2023-06-24T05:22:32;102160.97;;;23.32;54.05
79372;BME280;68914;51.262;6.802;2023-06-24T05:23:32;102160.00;;;24.41;51.77
79372;BME280;68914;51.262;6.802;2023-06-24T05:24:33;102164.28;;;25.17;49.42
79372;BME280;68914;51.262;6.802;2023-06-24T05:25:33;102159.16;;;25.88;47.85
79372;BME280;68914;51.262;6.802;2023-06-24T05:26:38;102161.88;;;26.39;46.11
79372;BME280;68914;51.262;6.802;2023-06-24T05:27:39;102158.84;;;26.92;44.45
79372;BME280;68914;51.262;6.802;2023-06-24T05:28:39;102159.75;;;27.47;43.54
79372;BME280;68914;51.262;6.802;2023-06-24T05:29:40;102158.97;;;27.96;43.01
79372;BME280;68914;51.262;6.802;2023-06-24T05:30:41;102167.19;;;27.81;42.62
79372;BME280;68914;51.262;6.802;2023-06-24T05:31:42;102163.47;;;27.61;42.73
79372;BME280;68914;51.262;6.802;2023-06-24T05:32:43;102164.97;;;28.27;41.36
79372;BME280;68914;51.262;6.802;2023-06-24T05:33:44;102168.06;;;27.66;43.03
79372;BME280;68914;51.262;6.802;2023-06-24T05:34:45;102164.03;;;28.03;41.90
79372;BME280;68914;51.262;6.802;2023-06-24T05:35:45;102165.75;;;27.39;42.81
79372;BME280;68914;51.262;6.802;2023-06-24T05:36:46;102176.16;;;26.96;44.05
79372;BME280;68914;51.262;6.802;2023-06-24T05:37:47;102167.84;;;26.31;45.59
79372;BME280;68914;51.262;6.802;2023-06-24T05:38:47;102166.63;;;27.29;43.40
79372;BME280;68914;51.262;6.802;2023-06-24T05:39:49;102168.84;;;27.66;42.68
79372;BME280;68914;51.262;6.802;2023-06-24T05:40:49;102172.19;;;27.53;42.81
79372;BME280;68914;51.262;6.802;2023-06-24T05:41:50;102160.41;;;27.78;42.00